createdAt,value
2023-01-24T04:55:09.581Z,1.25
2023-01-24T04:58:13.485Z,1.65
2023-01-24T05:01:15.693Z,1.17
2023-01-24T05:04:19.302Z,2.37
2023-01-24T05:07:21.446Z,3.08
2023-01-24T05:10:25.171Z,1.27
2023-01-24T05:13:28.011Z,1.80
2023-01-24T05:16:30.599Z,1.65
2023-01-24T05:19:33.516Z,1.08
2023-01-24T05:22:36.098Z,1.10
2023-01-24T05:25:38.442Z,1.42
2023-01-24T05:28:41.058Z,1.35
2023-01-24T05:31:43.358Z,1.37
2023-01-24T05:34:46.610Z,1.42
2023-01-24T05:37:51.805Z,2.90
2023-01-24T05:40:54.676Z,1.92
2023-01-24T05:43:56.939Z,1.48
2023-01-24T05:46:59.676Z,1.10
2023-01-24T05:50:02.565Z,2.40
2023-01-24T05:53:05.086Z,1.27
2023-01-24T05:56:14.205Z,1.27
2023-01-24T05:59:17.111Z,2.08
2023-01-24T06:02:19.680Z,1.85
2023-01-24T06:05:22.507Z,1.73
2023-01-24T06:08:25.041Z,2.10
2023-01-24T06:11:28.576Z,0.70
2023-01-24T06:14:33.606Z,1.50
2023-01-24T06:17:36.048Z,1.60
2023-01-24T06:20:38.660Z,1.67
2023-01-24T06:23:41.214Z,1.62
2023-01-24T06:26:43.803Z,1.10
2023-01-24T06:29:46.551Z,1.98
2023-01-24T06:33:26.943Z,1.55
2023-01-24T06:36:45.526Z,2.22
2023-01-24T06:42:53.968Z,1.77
2023-01-24T06:45:56.931Z,1.35
2023-01-24T06:48:59.954Z,1.58
2023-01-24T06:52:02.213Z,2.12
2023-01-24T06:55:06.037Z,0.88
2023-01-24T06:58:08.163Z,1.00
2023-01-24T07:01:10.614Z,1.95
2023-01-24T07:04:13.192Z,2.60
2023-01-24T07:07:15.671Z,1.42
2023-01-24T07:10:18.042Z,2.58
2023-01-24T07:13:20.561Z,2.70
2023-01-24T07:16:22.730Z,3.03
2023-01-24T07:19:26.539Z,1.90
2023-01-24T07:22:29.081Z,1.87
2023-01-24T07:25:32.094Z,1.85
2023-01-24T07:28:34.229Z,1.33
2023-01-24T07:31:36.718Z,1.83
2023-01-24T07:34:39.434Z,2.30
2023-01-24T07:37:41.859Z,2.10
2023-01-24T07:40:43.995Z,2.60
2023-01-24T07:43:46.524Z,2.22
2023-01-24T07:46:48.733Z,1.80
2023-01-24T07:49:51.151Z,1.67
2023-01-24T07:52:56.422Z,2.60
2023-01-24T07:56:02.917Z,1.17
2023-01-24T07:59:05.730Z,1.58
2023-01-24T08:02:11.977Z,3.12
2023-01-24T08:05:14.447Z,1.70
2023-01-24T08:08:16.675Z,2.80
2023-01-24T08:11:19.268Z,2.25
2023-01-24T08:14:22.775Z,1.58
2023-01-24T08:17:25.258Z,2.12
2023-01-24T08:20:30.152Z,3.85
2023-01-24T08:23:32.758Z,2.10
2023-01-24T08:26:34.919Z,1.08
2023-01-24T08:29:37.419Z,2.50
2023-01-24T08:32:39.987Z,3.95
2023-01-24T08:35:42.430Z,2.75
2023-01-24T08:38:44.550Z,3.90
2023-01-24T08:41:47.212Z,3.15
2023-01-24T08:44:49.355Z,3.08
2023-01-24T08:47:53.720Z,1.95
2023-01-24T08:50:56.940Z,2.45
2023-01-24T08:53:59.421Z,3.42
2023-01-24T08:57:02.087Z,2.97
2023-01-24T09:00:05.323Z,1.48
2023-01-24T09:03:07.478Z,2.35
2023-01-24T09:06:10.847Z,2.45
2023-01-24T09:09:13.014Z,2.92
2023-01-24T09:12:15.395Z,1.83
2023-01-24T09:15:17.634Z,1.95
2023-01-24T09:18:20.024Z,1.58
2023-01-24T09:21:22.682Z,2.20
2023-01-24T09:24:25.903Z,2.22
2023-01-24T09:27:27.997Z,1.62
2023-01-24T09:30:30.477Z,1.80
2023-01-24T09:33:32.662Z,2.92
2023-01-24T09:36:35.140Z,2.42
2023-01-24T09:39:37.590Z,2.72
2023-01-24T09:42:51.520Z,1.85
2023-01-24T09:46:07.205Z,2.45
2023-01-24T09:49:23.019Z,1.40
2023-01-24T09:52:32.339Z,1.52
2023-01-24T09:55:43.319Z,2.78
2023-01-24T09:58:45.949Z,2.78
2023-01-24T10:01:50.434Z,1.80
2023-01-24T10:04:53.712Z,0.95
2023-01-24T10:08:02.798Z,2.80
2023-01-24T10:11:20.219Z,1.87
2023-01-24T10:14:42.140Z,1.02
2023-01-24T10:17:59.483Z,1.87
2023-01-24T10:21:25.384Z,1.48
2023-01-24T10:24:36.950Z,1.77
2023-01-24T10:27:52.434Z,1.73
2023-01-24T10:31:16.537Z,2.33
2023-01-24T10:34:50.880Z,1.60
2023-01-24T10:37:57.865Z,1.20
2023-01-24T10:41:15.138Z,2.62
2023-01-24T10:44:29.475Z,2.47
2023-01-24T10:47:31.575Z,1.98
2023-01-24T10:50:43.519Z,1.52
2023-01-24T10:53:46.377Z,1.60
2023-01-24T10:56:49.487Z,1.92
2023-01-24T10:59:52.442Z,1.85
2023-01-24T11:02:57.418Z,2.45
2023-01-24T11:05:59.626Z,1.58
2023-01-24T11:09:17.297Z,2.33
2023-01-24T11:12:21.574Z,2.20
2023-01-24T11:15:33.474Z,2.05
2023-01-24T11:18:38.150Z,1.23
2023-01-24T11:21:53.485Z,1.37
2023-01-24T11:25:01.225Z,3.12
2023-01-24T11:28:03.768Z,2.15
2023-01-24T11:31:34.362Z,1.10
2023-01-24T11:35:03.524Z,1.02
2023-01-24T11:41:16.761Z,2.10
2023-01-24T11:45:09.408Z,2.00
2023-01-24T11:48:22.852Z,1.70
2023-01-24T11:51:51.120Z,2.03
2023-01-24T11:58:34.907Z,2.47
2023-01-24T12:01:53.883Z,2.15
2023-01-24T12:05:13.586Z,1.48
2023-01-24T12:08:46.930Z,1.48
2023-01-24T12:12:18.703Z,2.42
2023-01-24T12:15:29.706Z,0.75
2023-01-24T12:18:57.863Z,1.40
2023-01-24T12:22:01.394Z,2.50
2023-01-24T12:25:11.955Z,1.65
2023-01-24T12:28:24.887Z,1.60
2023-01-24T12:31:38.885Z,2.12
2023-01-24T12:35:01.363Z,1.67
2023-01-24T12:38:09.579Z,2.62
2023-01-24T12:41:36.764Z,1.40
2023-01-24T12:44:48.241Z,1.77
2023-01-24T12:48:21.751Z,2.40
2023-01-24T12:51:33.437Z,1.62
2023-01-24T12:54:45.370Z,3.10
2023-01-24T12:58:14.673Z,3.37
2023-01-24T13:01:40.705Z,2.85
2023-01-24T13:04:59.142Z,3.40
2023-01-24T13:08:19.543Z,2.40
2023-01-24T13:11:24.969Z,2.08
2023-01-24T13:14:39.020Z,1.50
2023-01-24T13:18:06.981Z,1.92
2023-01-24T13:21:17.835Z,2.22
2023-01-24T13:24:39.011Z,2.12
2023-01-24T13:27:51.292Z,2.72
2023-01-24T13:31:26.981Z,1.62
2023-01-24T13:34:36.069Z,1.15
2023-01-24T13:37:40.337Z,2.55
2023-01-24T13:40:58.627Z,3.17
2023-01-24T13:44:02.602Z,2.20
2023-01-24T13:47:23.670Z,1.58
2023-01-24T13:50:30.804Z,1.33
2023-01-24T13:53:57.977Z,2.80
2023-01-24T13:57:28.962Z,1.42
2023-01-24T14:00:31.573Z,2.78
2023-01-24T14:03:37.962Z,3.33
2023-01-24T14:06:43.640Z,3.47
2023-01-24T14:09:47.756Z,3.47
2023-01-24T14:12:55.296Z,3.30
2023-01-24T14:19:13.174Z,3.25
2023-01-24T14:22:20.381Z,3.45
2023-01-24T14:25:35.612Z,3.07
2023-01-24T14:28:41.452Z,3.40
2023-01-24T14:31:47.919Z,4.00
2023-01-24T14:35:00.173Z,3.45
2023-01-24T14:38:18.157Z,4.15
2023-01-24T14:44:29.701Z,3.50
2023-01-24T14:47:32.884Z,2.72
2023-01-24T14:50:37.721Z,4.32
2023-01-24T14:53:40.512Z,2.92
2023-01-24T14:56:43.095Z,4.05
2023-01-24T14:59:50.872Z,4.60
2023-01-24T15:02:58.751Z,3.47
2023-01-24T15:06:04.060Z,3.72
2023-01-24T15:09:06.250Z,3.83
2023-01-24T15:12:12.982Z,4.85
2023-01-24T15:15:19.180Z,4.62
2023-01-24T15:18:41.944Z,3.28
2023-01-24T15:21:46.971Z,3.60
2023-01-24T15:25:00.972Z,5.12
2023-01-24T15:28:12.148Z,3.40
2023-01-24T15:31:43.713Z,4.32
2023-01-24T15:34:46.976Z,3.17
2023-01-24T15:38:26.532Z,3.03
2023-01-24T15:44:55.375Z,3.25
2023-01-24T15:48:15.608Z,3.15
2023-01-24T15:51:30.326Z,7.53
2023-01-24T15:54:33.738Z,8.18
2023-01-24T15:57:39.325Z,19.67
2023-01-24T16:00:51.258Z,8.35
2023-01-24T16:03:53.601Z,6.87
2023-01-24T16:06:55.772Z,5.87
2023-01-24T16:09:58.210Z,5.93
2023-01-24T16:13:00.400Z,3.67
2023-01-24T16:16:06.620Z,5.32
2023-01-24T16:19:20.750Z,5.15
2023-01-24T16:22:24.017Z,3.45
2023-01-24T16:25:26.198Z,4.62
2023-01-24T16:28:28.749Z,5.28
2023-01-24T16:31:31.005Z,3.53
2023-01-24T16:34:33.446Z,2.60
2023-01-24T16:37:35.723Z,4.95
2023-01-24T16:40:39.008Z,4.43
2023-01-24T16:43:44.423Z,4.15
2023-01-24T16:46:49.777Z,3.87
